sensor_id;sensor_type;location;lat;lon;timestamp;pressure;altitude;pressure_sealevel;temperature;humidity
64521;BME280;50896;46.714;17.322;2023-04-01T00:02:23;99234.16;;;9.64;100.00
64521;BME280;50896;46.714;17.322;2023-04-01T00:04:50;99232.78;;;9.68;100.00
64521;BME280;50896;46.714;17.322;2023-04-01T00:07:17;99225.78;;;9.60;100.00
64521;BME280;50896;46.714;17.322;2023-04-01T00:09:44;99219.81;;;9.58;100.00
64521;BME280;50896;46.714;17.322;2023-04-01T00:12:11;99220.28;;;9.62;100.00
64521;BME280;50896;46.714;17.322;2023-04-01T00:14:38;99217.63;;;9.62;100.00
64521;BME280;50896;46.714;17.322;2023-04-01T00:17:06;99217.63;;;9.62;100.00
64521;BME280;50896;46.714;17.322;2023-04-01T00:19:33;99212.50;;;9.60;100.00
64521;BME280;50896;46.714;17.322;2023-04-01T00:22:01;99199.59;;;9.57;100.00
64521;BME280;50896;46.714;17.322;2023-04-01T00:24:28;99212.31;;;9.62;100.00
64521;BME280;50896;46.714;17.322;2023-04-01T00:26:55;99221.28;;;9.61;100.00
64521;BME280;50896;46.714;17.322;2023-04-01T00:29:22;99228.25;;;9.62;100.00
64521;BME280;50896;46.714;17.322;2023-04-01T00:31:50;99222.56;;;9.65;100.00
64521;BME280;50896;46.714;17.322;2023-04-01T00:34:17;99219.25;;;9.63;100.00
64521;BME280;50896;46.714;17.322;2023-04-01T00:36:44;99222.19;;;9.68;100.00
64521;BME280;50896;46.714;17.322;2023-04-01T00:39:11;99224.41;;;9.64;100.00
64521;BME280;50896;46.714;17.322;2023-04-01T00:41:38;99231.31;;;9.65;100.00
64521;BME280;50896;46.714;17.322;2023-04-01T00:44:15;99232.88;;;9.60;100.00
64521;BME280;50896;46.714;17.322;2023-04-01T00:46:42;99233.88;;;9.58;100.00
64521;BME280;50896;46.714;17.322;2023-04-01T00:49:09;99227.97;;;9.56;100.00
64521;BME280;50896;46.714;17.322;2023-04-01T00:51:37;99236.38;;;9.60;100.00
64521;BME280;50896;46.714;17.322;2023-04-01T00:54:06;99231.41;;;9.57;100.00
64521;BME280;50896;46.714;17.322;2023-04-01T00:56:39;99246.63;;;9.63;100.00
64521;BME280;50896;46.714;17.322;2023-04-01T00:59:15;99247.44;;;9.64;100.00
64521;BME280;50896;46.714;17.322;2023-04-01T01:01:42;99244.41;;;9.67;100.00
64521;BME280;50896;46.714;17.322;2023-04-01T01:04:27;99253.03;;;9.69;100.00
64521;BME280;50896;46.714;17.322;2023-04-01T01:37:19;99205.97;;;9.63;100.00
64521;BME280;50896;46.714;17.322;2023-04-01T01:39:54;99203.69;;;9.60;100.00
64521;BME280;50896;46.714;17.322;2023-04-01T01:42:22;99202.25;;;9.57;100.00
64521;BME280;50896;46.714;17.322;2023-04-01T01:44:53;99199.34;;;9.52;100.00
64521;BME280;50896;46.714;17.322;2023-04-01T01:47:21;99207.09;;;9.53;100.00
64521;BME280;50896;46.714;17.322;2023-04-01T01:49:50;99210.56;;;9.54;100.00
64521;BME280;50896;46.714;17.322;2023-04-01T01:52:18;99202.00;;;9.52;100.00
64521;BME280;50896;46.714;17.322;2023-04-01T01:54:50;99209.38;;;9.56;100.00
64521;BME280;50896;46.714;17.322;2023-04-01T01:57:20;99204.69;;;9.58;100.00
64521;BME280;50896;46.714;17.322;2023-04-01T01:59:54;99203.69;;;9.60;100.00
64521;BME280;50896;46.714;17.322;2023-04-01T02:02:26;99202.25;;;9.57;100.00
64521;BME280;50896;46.714;17.322;2023-04-01T02:04:54;99213.22;;;9.54;100.00
64521;BME280;50896;46.714;17.322;2023-04-01T02:07:28;99217.06;;;9.51;100.00
64521;BME280;50896;46.714;17.322;2023-04-01T02:09:58;99197.69;;;9.51;100.00
64521;BME280;50896;46.714;17.322;2023-04-01T02:12:26;99164.91;;;9.58;100.00
64521;BME280;50896;46.714;17.322;2023-04-01T02:15:00;99129.09;;;9.48;100.00
64521;BME280;50896;46.714;17.322;2023-04-01T02:17:33;99124.84;;;9.53;100.00
64521;BME280;50896;46.714;17.322;2023-04-01T02:20:05;99115.34;;;9.44;100.00
64521;BME280;50896;46.714;17.322;2023-04-01T02:22:37;99110.63;;;9.39;100.00
64521;BME280;50896;46.714;17.322;2023-04-01T02:25:08;99107.06;;;9.32;100.00
64521;BME280;50896;46.714;17.322;2023-04-01T02:27:36;99114.75;;;9.27;100.00
64521;BME280;50896;46.714;17.322;2023-04-01T02:30:04;99102.41;;;9.19;100.00
64521;BME280;50896;46.714;17.322;2023-04-01T02:32:33;99111.09;;;9.28;100.00
64521;BME280;50896;46.714;17.322;2023-04-01T02:35:01;99103.16;;;9.28;100.00
64521;BME280;50896;46.714;17.322;2023-04-01T02:37:32;99105.69;;;9.36;100.00
64521;BME280;50896;46.714;17.322;2023-04-01T02:40:04;99105.94;;;9.41;100.00
64521;BME280;50896;46.714;17.322;2023-04-01T02:42:33;99111.91;;;9.44;100.00
64521;BME280;50896;46.714;17.322;2023-04-01T02:45:01;99117.38;;;9.42;100.00
64521;BME280;50896;46.714;17.322;2023-04-01T02:47:28;99118.00;;;9.44;100.00
64521;BME280;50896;46.714;17.322;2023-04-01T02:49:56;99115.94;;;9.39;100.00
64521;BME280;50896;46.714;17.322;2023-04-01T02:52:25;99125.78;;;9.46;100.00
64521;BME280;50896;46.714;17.322;2023-04-01T02:54:53;99117.72;;;9.39;100.00
64521;BME280;50896;46.714;17.322;2023-04-01T02:57:20;99121.84;;;9.41;100.00
64521;BME280;50896;46.714;17.322;2023-04-01T02:59:47;99125.53;;;9.40;100.00
64521;BME280;50896;46.714;17.322;2023-04-01T03:02:15;99122.22;;;9.38;100.00
64521;BME280;50896;46.714;17.322;2023-04-01T03:04:42;99114.28;;;9.38;100.00
64521;BME280;50896;46.714;17.322;2023-04-01T03:07:09;99110.16;;;9.36;100.00
64521;BME280;50896;46.714;17.322;2023-04-01T03:09:38;99111.81;;;9.37;100.00
64521;BME280;50896;46.714;17.322;2023-04-01T03:12:05;99115.09;;;9.39;100.00
64521;BME280;50896;46.714;17.322;2023-04-01T03:14:42;99123.88;;;9.39;100.00
64521;BME280;50896;46.714;17.322;2023-04-01T03:17:09;99124.31;;;9.43;100.00
64521;BME280;50896;46.714;17.322;2023-04-01T03:19:36;99115.72;;;9.41;100.00
64521;BME280;50896;46.714;17.322;2023-04-01T03:22:09;99127.44;;;9.47;100.00
64521;BME280;50896;46.714;17.322;2023-04-01T03:24:37;99132.13;;;9.45;100.00
64521;BME280;50896;46.714;17.322;2023-04-01T03:27:04;99131.38;;;9.36;100.00
64521;BME280;50896;46.714;17.322;2023-04-01T03:29:31;99136.97;;;9.41;100.00
64521;BME280;50896;46.714;17.322;2023-04-01T03:31:58;99149.75;;;9.37;100.00
64521;BME280;50896;46.714;17.322;2023-04-01T03:34:26;99139.59;;;9.41;100.00
64521;BME280;50896;46.714;17.322;2023-04-01T03:36:53;99149.56;;;9.39;100.00
64521;BME280;50896;46.714;17.322;2023-04-01T03:39:21;99154.88;;;9.39;100.00
64521;BME280;50896;46.714;17.322;2023-04-01T03:41:49;99157.38;;;9.40;100.00
64521;BME280;50896;46.714;17.322;2023-04-01T03:44:16;99151.97;;;9.34;100.00
64521;BME280;50896;46.714;17.322;2023-04-01T03:46:46;99152.41;;;9.37;100.00
64521;BME280;50896;46.714;17.322;2023-04-01T03:49:14;99149.13;;;9.35;100.00
64521;BME280;50896;46.714;17.322;2023-04-01T03:51:42;99145.81;;;9.33;100.00
64521;BME280;50896;46.714;17.322;2023-04-01T03:54:10;99154.81;;;9.32;100.00
64521;BME280;50896;46.714;17.322;2023-04-01T03:56:38;99153.72;;;9.27;100.00
64521;BME280;50896;46.714;17.322;2023-04-01T03:59:07;99151.06;;;9.27;100.00
64521;BME280;50896;46.714;17.322;2023-04-01T04:01:34;99154.72;;;9.26;100.00
64521;BME280;50896;46.714;17.322;2023-04-01T04:04:01;99155.91;;;9.23;100.00
64521;BME280;50896;46.714;17.322;2023-04-01T04:06:28;99147.13;;;9.22;100.00
64521;BME280;50896;46.714;17.322;2023-04-01T04:08:55;99151.16;;;9.18;100.00
64521;BME280;50896;46.714;17.322;2023-04-01T04:11:22;99160.13;;;9.17;100.00
64521;BME280;50896;46.714;17.322;2023-04-01T04:13:51;99158.66;;;9.15;100.00
64521;BME280;50896;46.714;17.322;2023-04-01T04:16:19;99162.31;;;9.14;100.00
64521;BME280;50896;46.714;17.322;2023-04-01T04:18:53;99172.47;;;9.10;100.00
64521;BME280;50896;46.714;17.322;2023-04-01T04:21:19;99181.41;;;9.09;100.00
64521;BME280;50896;46.714;17.322;2023-04-01T04:23:47;99179.16;;;9.06;100.00
64521;BME280;50896;46.714;17.322;2023-04-01T04:26:16;99182.78;;;9.05;100.00
64521;BME280;50896;46.714;17.322;2023-04-01T04:28:50;99170.91;;;9.01;100.00
64521;BME280;50896;46.714;17.322;2023-04-01T04:31:20;99172.94;;;8.99;100.00
64521;BME280;50896;46.714;17.322;2023-04-01T04:33:49;99177.56;;;8.97;100.00
64521;BME280;50896;46.714;17.322;2023-04-01T04:36:17;99189.34;;;8.94;100.00
64521;BME280;50896;46.714;17.322;2023-04-01T04:38:45;99180.97;;;8.91;100.00
64521;BME280;50896;46.714;17.322;2023-04-01T04:41:13;99189.09;;;8.89;100.00
64521;BME280;50896;46.714;17.322;2023-04-01T04:43:49;99202.97;;;8.91;100.00
64521;BME280;50896;46.714;17.322;2023-04-01T04:46:17;99189.63;;;8.84;100.00
64521;BME280;50896;46.714;17.322;2023-04-01T04:48:45;99194.94;;;8.84;100.00
64521;BME280;50896;46.714;17.322;2023-04-01T04:51:14;99191.00;;;8.80;100.00
64521;BME280;50896;46.714;17.322;2023-04-01T04:53:42;99196.75;;;8.84;100.00
64521;BME280;50896;46.714;17.322;2023-04-01T04:56:09;99191.16;;;8.79;100.00
64521;BME280;50896;46.714;17.322;2023-04-01T04:58:42;99199.66;;;8.74;100.00
64521;BME280;50896;46.714;17.322;2023-04-01T05:01:16;99194.91;;;8.69;100.00
64521;BME280;50896;46.714;17.322;2023-04-01T05:03:44;99190.13;;;8.65;100.00
64521;BME280;50896;46.714;17.322;2023-04-01T05:06:13;99186.03;;;8.62;100.00
64521;BME280;50896;46.714;17.322;2023-04-01T05:08:41;99196.72;;;8.69;100.00
64521;BME280;50896;46.714;17.322;2023-04-01T05:11:12;99188.34;;;8.65;100.00
64521;BME280;50896;46.714;17.322;2023-04-01T05:13:42;99196.72;;;8.69;100.00
64521;BME280;50896;46.714;17.322;2023-04-01T05:16:11;99196.47;;;8.79;100.00
64521;BME280;50896;46.714;17.322;2023-04-01T05:18:38;99197.56;;;8.84;100.00
64521;BME280;50896;46.714;17.322;2023-04-01T05:21:07;99204.16;;;8.88;100.00
64521;BME280;50896;46.714;17.322;2023-04-01T05:23:35;99204.81;;;8.91;100.00
64521;BME280;50896;46.714;17.322;2023-04-01T05:26:04;99205.06;;;8.96;100.00
64521;BME280;50896;46.714;17.322;2023-04-01T05:28:32;99206.28;;;8.93;100.00
64521;BME280;50896;46.714;17.322;2023-04-01T05:31:00;99212.69;;;8.99;100.00
64521;BME280;50896;46.714;17.322;2023-04-01T05:33:34;99203.38;;;9.03;100.00
64521;BME280;50896;46.714;17.322;2023-04-01T05:38:34;99203.91;;;9.13;100.00
64521;BME280;50896;46.714;17.322;2023-04-01T05:41:02;99192.69;;;9.11;100.00
64521;BME280;50896;46.714;17.322;2023-04-01T05:43:30;99199.09;;;9.17;100.00
64521;BME280;50896;46.714;17.322;2023-04-01T05:46:06;99189.66;;;9.14;100.00
64521;BME280;50896;46.714;17.322;2023-04-01T05:48:45;99197.16;;;9.11;100.00
64521;BME280;50896;46.714;17.322;2023-04-01T05:51:13;99201.56;;;9.18;100.00
64521;BME280;50896;46.714;17.322;2023-04-01T05:53:41;99199.91;;;9.17;100.00
64521;BME280;50896;46.714;17.322;2023-04-01T05:56:09;99210.59;;;9.24;100.00
64521;BME280;50896;46.714;17.322;2023-04-01T05:58:39;99211.03;;;9.28;100.00
64521;BME280;50896;46.714;17.322;2023-04-01T06:01:10;99209.66;;;9.32;100.00
64521;BME280;50896;46.714;17.322;2023-04-01T06:03:42;99203.38;;;9.33;100.00
64521;BME280;50896;46.714;17.322;2023-04-01T06:06:23;99221.56;;;9.36;100.00
64521;BME280;50896;46.714;17.322;2023-04-01T06:08:52;99220.19;;;9.40;100.00
64521;BME280;50896;46.714;17.322;2023-04-01T06:20:23;99224.50;;;9.56;100.00
64521;BME280;50896;46.714;17.322;2023-04-01T06:35:00;99238.91;;;9.68;100.00
64521;BME280;50896;46.714;17.322;2023-04-01T06:46:53;99251.47;;;9.74;100.00
64521;BME280;50896;46.714;17.322;2023-04-01T06:53:31;99250.88;;;9.79;100.00
64521;BME280;50896;46.714;17.322;2023-04-01T06:56:25;99239.47;;;9.79;100.00
64521;BME280;50896;46.714;17.322;2023-04-01T06:59:12;99248.03;;;9.81;100.00
64521;BME280;50896;46.714;17.322;2023-04-01T07:01:51;99261.78;;;9.84;100.00
64521;BME280;50896;46.714;17.322;2023-04-01T07:04:24;99254.00;;;9.83;100.00
64521;BME280;50896;46.714;17.322;2023-04-01T07:06:56;99260.03;;;9.91;100.00
64521;BME280;50896;46.714;17.322;2023-04-01T07:09:31;99256.38;;;9.92;100.00
64521;BME280;50896;46.714;17.322;2023-04-01T07:12:43;99263.75;;;9.97;100.00
64521;BME280;50896;46.714;17.322;2023-04-01T07:15:50;99251.56;;;10.03;100.00
64521;BME280;50896;46.714;17.322;2023-04-01T07:18:24;99253.75;;;10.14;100.00
64521;BME280;50896;46.714;17.322;2023-04-01T07:20:58;99268.94;;;10.20;100.00
64521;BME280;50896;46.714;17.322;2023-04-01T07:23:32;99271.59;;;10.20;100.00
64521;BME280;50896;46.714;17.322;2023-04-01T07:26:21;99257.56;;;10.26;100.00
64521;BME280;50896;46.714;17.322;2023-04-01T07:29:09;99267.78;;;10.30;100.00
64521;BME280;50896;46.714;17.322;2023-04-01T07:32:06;99271.72;;;10.34;100.00
64521;BME280;50896;46.714;17.322;2023-04-01T07:54:16;99278.00;;;10.91;100.00
64521;BME280;50896;46.714;17.322;2023-04-01T07:57:14;99280.84;;;10.89;100.00
64521;BME280;50896;46.714;17.322;2023-04-01T07:59:58;99269.22;;;10.90;100.00
64521;BME280;50896;46.714;17.322;2023-04-01T08:11:41;99283.97;;;11.21;100.00
64521;BME280;50896;46.714;17.322;2023-04-01T08:18:02;99282.56;;;11.25;100.00
64521;BME280;50896;46.714;17.322;2023-04-01T08:20:39;99281.94;;;11.23;100.00
64521;BME280;50896;46.714;17.322;2023-04-01T08:23:16;99272.31;;;11.22;100.00
64521;BME280;50896;46.714;17.322;2023-04-01T08:25:50;99278.91;;;11.26;100.00
64521;BME280;50896;46.714;17.322;2023-04-01T08:28:34;99278.03;;;11.19;100.00
64521;BME280;50896;46.714;17.322;2023-04-01T08:31:12;99282.91;;;11.16;100.00
64521;BME280;50896;46.714;17.322;2023-04-01T08:33:44;99295.41;;;11.15;100.00
64521;BME280;50896;46.714;17.322;2023-04-01T08:36:15;99288.22;;;11.16;100.00
64521;BME280;50896;46.714;17.322;2023-04-01T08:39:11;99292.09;;;11.13;100.00
64521;BME280;50896;46.714;17.322;2023-04-01T09:17:47;99284.16;;;11.90;100.00
64521;BME280;50896;46.714;17.322;2023-04-01T09:35:30;99285.63;;;12.68;100.00
64521;BME280;50896;46.714;17.322;2023-04-01T09:40:55;99288.06;;;12.62;100.00
64521;BME280;50896;46.714;17.322;2023-04-01T09:54:44;99293.63;;;12.81;100.00
64521;BME280;50896;46.714;17.322;2023-04-01T10:08:40;99287.69;;;13.06;100.00
64521;BME280;50896;46.714;17.322;2023-04-01T10:19:55;99281.53;;;13.39;100.00
64521;BME280;50896;46.714;17.322;2023-04-01T10:34:20;99272.00;;;13.70;100.00
64521;BME280;50896;46.714;17.322;2023-04-01T10:48:52;99276.91;;;13.66;100.00
64521;BME280;50896;46.714;17.322;2023-04-01T11:12:41;99251.19;;;13.85;100.00
64521;BME280;50896;46.714;17.322;2023-04-01T11:15:41;99256.97;;;14.21;100.00
64521;BME280;50896;46.714;17.322;2023-04-01T11:33:29;99237.16;;;14.67;100.00
64521;BME280;50896;46.714;17.322;2023-04-01T11:48:49;99230.38;;;15.52;100.00
64521;BME280;50896;46.714;17.322;2023-04-01T12:10:37;99225.00;;;15.70;100.00
64521;BME280;50896;46.714;17.322;2023-04-01T12:16:13;99219.47;;;15.10;100.00
64521;BME280;50896;46.714;17.322;2023-04-01T12:18:52;99213.75;;;14.88;100.00
64521;BME280;50896;46.714;17.322;2023-04-01T12:24:51;99219.41;;;14.73;100.00
64521;BME280;50896;46.714;17.322;2023-04-01T12:27:41;99215.72;;;14.42;100.00
64521;BME280;50896;46.714;17.322;2023-04-01T12:35:58;99230.75;;;14.04;100.00
64521;BME280;50896;46.714;17.322;2023-04-01T12:50:18;99219.94;;;14.56;100.00
64521;BME280;50896;46.714;17.322;2023-04-01T12:52:58;99212.16;;;14.80;100.00
64521;BME280;50896;46.714;17.322;2023-04-01T12:55:41;99204.88;;;14.87;100.00
64521;BME280;50896;46.714;17.322;2023-04-01T13:19:47;99229.81;;;14.24;100.00
64521;BME280;50896;46.714;17.322;2023-04-01T13:28:28;99269.78;;;12.46;100.00
64521;BME280;50896;46.714;17.322;2023-04-01T13:31:08;99274.31;;;11.90;100.00
64521;BME280;50896;46.714;17.322;2023-04-01T13:34:02;99286.84;;;11.55;100.00
64521;BME280;50896;46.714;17.322;2023-04-01T13:42:29;99265.47;;;11.83;100.00
64521;BME280;50896;46.714;17.322;2023-04-01T14:02:41;99228.75;;;12.20;100.00
64521;BME280;50896;46.714;17.322;2023-04-01T14:17:15;99224.47;;;12.46;100.00
64521;BME280;50896;46.714;17.322;2023-04-01T14:25:26;99232.88;;;12.50;100.00
64521;BME280;50896;46.714;17.322;2023-04-01T14:36:41;99226.31;;;12.45;100.00
64521;BME280;50896;46.714;17.322;2023-04-01T14:47:54;99245.41;;;12.49;100.00
64521;BME280;50896;46.714;17.322;2023-04-01T14:50:28;99230.41;;;12.41;100.00
64521;BME280;50896;46.714;17.322;2023-04-01T14:58:13;99239.44;;;12.34;100.00
64521;BME280;50896;46.714;17.322;2023-04-01T15:01:05;99245.81;;;12.39;100.00
64521;BME280;50896;46.714;17.322;2023-04-01T15:06:55;99235.53;;;12.36;100.00
64521;BME280;50896;46.714;17.322;2023-04-01T15:15:16;99232.69;;;12.38;100.00
64521;BME280;50896;46.714;17.322;2023-04-01T15:20:43;99233.28;;;12.40;100.00
64521;BME280;50896;46.714;17.322;2023-04-01T15:23:27;99230.81;;;12.38;100.00
64521;BME280;50896;46.714;17.322;2023-04-01T15:31:14;99229.38;;;12.36;100.00
64521;BME280;50896;46.714;17.322;2023-04-01T15:33:55;99232.47;;;12.33;100.00
64521;BME280;50896;46.714;17.322;2023-04-01T15:52:41;99246.53;;;12.06;100.00
64521;BME280;50896;46.714;17.322;2023-04-01T15:55:36;99248.59;;;12.04;100.00
64521;BME280;50896;46.714;17.322;2023-04-01T16:07:04;99243.78;;;11.93;100.00
64521;BME280;50896;46.714;17.322;2023-04-01T16:10:04;99240.72;;;11.89;100.00
64521;BME280;50896;46.714;17.322;2023-04-01T16:12:40;99247.25;;;11.87;100.00
64521;BME280;50896;46.714;17.322;2023-04-01T16:20:46;99255.41;;;11.78;100.00
64521;BME280;50896;46.714;17.322;2023-04-01T16:29:40;99261.91;;;11.62;100.00
64521;BME280;50896;46.714;17.322;2023-04-01T16:34:44;99276.63;;;11.58;100.00
64521;BME280;50896;46.714;17.322;2023-04-01T16:37:17;99271.25;;;11.52;100.00
64521;BME280;50896;46.714;17.322;2023-04-01T16:45:17;99284.97;;;11.49;100.00
64521;BME280;50896;46.714;17.322;2023-04-01T16:47:49;99284.53;;;11.45;100.00
64521;BME280;50896;46.714;17.322;2023-04-01T16:52:59;99303.56;;;11.42;100.00
64521;BME280;50896;46.714;17.322;2023-04-01T16:56:02;99299.63;;;11.38;100.00
64521;BME280;50896;46.714;17.322;2023-04-01T17:01:21;99314.34;;;11.34;100.00
64521;BME280;50896;46.714;17.322;2023-04-01T17:03:52;99306.97;;;11.29;100.00
64521;BME280;50896;46.714;17.322;2023-04-01T17:11:53;99328.81;;;11.24;100.00
64521;BME280;50896;46.714;17.322;2023-04-01T17:17:06;99336.16;;;11.22;100.00
64521;BME280;50896;46.714;17.322;2023-04-01T17:19:46;99339.41;;;11.18;100.00
64521;BME280;50896;46.714;17.322;2023-04-01T17:22:38;99336.91;;;11.16;100.00
64521;BME280;50896;46.714;17.322;2023-04-01T17:27:59;99347.13;;;11.13;100.00
64521;BME280;50896;46.714;17.322;2023-04-01T17:36:36;99351.94;;;11.02;100.00
64521;BME280;50896;46.714;17.322;2023-04-01T17:44:44;99356.69;;;10.85;100.00
64521;BME280;50896;46.714;17.322;2023-04-01T17:50:23;99363.59;;;10.80;100.00
64521;BME280;50896;46.714;17.322;2023-04-01T18:06:03;99361.44;;;10.68;100.00
64521;BME280;50896;46.714;17.322;2023-04-01T18:08:59;99372.34;;;10.73;100.00
64521;BME280;50896;46.714;17.322;2023-04-01T18:14:44;99383.91;;;10.66;100.00
64521;BME280;50896;46.714;17.322;2023-04-01T18:21:18;99405.09;;;10.59;100.00
64521;BME280;50896;46.714;17.322;2023-04-01T18:23:30;99402.56;;;10.51;100.00
64521;BME280;50896;46.714;17.322;2023-04-01T18:26:10;99405.66;;;10.54;100.00
64521;BME280;50896;46.714;17.322;2023-04-01T18:29:04;99407.31;;;10.55;100.00
64521;BME280;50896;46.714;17.322;2023-04-01T18:31:42;99408.31;;;10.54;100.00
64521;BME280;50896;46.714;17.322;2023-04-01T18:34:19;99414.28;;;10.56;100.00
64521;BME280;50896;46.714;17.322;2023-04-01T18:36:51;99415.91;;;10.57;100.00
64521;BME280;50896;46.714;17.322;2023-04-01T18:39:33;99415.28;;;10.55;100.00
64521;BME280;50896;46.714;17.322;2023-04-01T18:42:38;99398.88;;;10.52;100.00
64521;BME280;50896;46.714;17.322;2023-04-01T18:48:03;99397.16;;;10.44;100.00
64521;BME280;50896;46.714;17.322;2023-04-01T18:50:55;99411.25;;;10.45;100.00
64521;BME280;50896;46.714;17.322;2023-04-01T18:56:43;99396.97;;;10.31;100.00
64521;BME280;50896;46.714;17.322;2023-04-01T18:59:18;99410.91;;;10.33;100.00
64521;BME280;50896;46.714;17.322;2023-04-01T19:05:05;99424.84;;;10.35;100.00
64521;BME280;50896;46.714;17.322;2023-04-01T19:07:50;99425.66;;;10.35;100.00
64521;BME280;50896;46.714;17.322;2023-04-01T19:10:35;99428.22;;;10.29;100.00
64521;BME280;50896;46.714;17.322;2023-04-01T19:15:58;99438.41;;;10.40;100.00
64521;BME280;50896;46.714;17.322;2023-04-01T19:18:36;99442.06;;;10.39;100.00
64521;BME280;50896;46.714;17.322;2023-04-01T19:21:21;99436.13;;;10.37;100.00
64521;BME280;50896;46.714;17.322;2023-04-01T19:40:27;99461.84;;;10.51;100.00
64521;BME280;50896;46.714;17.322;2023-04-01T19:43:03;99456.00;;;10.41;100.00
64521;BME280;50896;46.714;17.322;2023-04-01T19:56:56;99492.72;;;10.52;100.00
64521;BME280;50896;46.714;17.322;2023-04-01T20:07:52;99496.03;;;10.54;100.00
64521;BME280;50896;46.714;17.322;2023-04-01T20:16:09;99499.06;;;10.51;100.00
64521;BME280;50896;46.714;17.322;2023-04-01T20:21:51;99510.06;;;10.48;100.00
64521;BME280;50896;46.714;17.322;2023-04-01T20:24:20;99519.03;;;10.47;100.00
64521;BME280;50896;46.714;17.322;2023-04-01T20:27:22;99513.06;;;10.45;100.00
64521;BME280;50896;46.714;17.322;2023-04-01T20:35:44;99508.84;;;10.36;100.00
64521;BME280;50896;46.714;17.322;2023-04-01T20:41:05;99527.50;;;10.27;100.00
64521;BME280;50896;46.714;17.322;2023-04-01T20:46:48;99536.09;;;10.30;100.00
64521;BME280;50896;46.714;17.322;2023-04-01T21:00:00;99556.19;;;10.17;100.00
64521;BME280;50896;46.714;17.322;2023-04-01T21:02:43;99550.88;;;10.17;100.00
64521;BME280;50896;46.714;17.322;2023-04-01T21:11:03;99559.09;;;10.22;100.00
64521;BME280;50896;46.714;17.322;2023-04-01T21:13:46;99566.06;;;10.23;100.00
64521;BME280;50896;46.714;17.322;2023-04-01T21:16:47;99565.69;;;10.26;100.00
64521;BME280;50896;46.714;17.322;2023-04-01T21:19:37;99570.00;;;10.27;100.00
64521;BME280;50896;46.714;17.322;2023-04-01T21:25:26;99564.50;;;10.29;100.00
64521;BME280;50896;46.714;17.322;2023-04-01T21:28:00;99567.00;;;10.31;100.00
64521;BME280;50896;46.714;17.322;2023-04-01T21:44:43;99568.47;;;10.33;100.00
64521;BME280;50896;46.714;17.322;2023-04-01T21:47:49;99566.00;;;10.32;100.00
64521;BME280;50896;46.714;17.322;2023-04-01T21:56:42;99574.31;;;10.29;100.00
64521;BME280;50896;46.714;17.322;2023-04-01T22:05:17;99585.84;;;10.21;100.00
64521;BME280;50896;46.714;17.322;2023-04-01T22:10:38;99576.59;;;10.17;100.00
64521;BME280;50896;46.714;17.322;2023-04-01T22:18:49;99589.22;;;10.15;100.00
64521;BME280;50896;46.714;17.322;2023-04-01T22:21:46;99601.03;;;10.12;100.00
64521;BME280;50896;46.714;17.322;2023-04-01T22:30:00;99593.06;;;10.12;100.00
64521;BME280;50896;46.714;17.322;2023-04-01T22:32:44;99598.75;;;10.09;100.00
64521;BME280;50896;46.714;17.322;2023-04-01T22:43:46;99612.16;;;9.92;100.00
64521;BME280;50896;46.714;17.322;2023-04-01T22:46:22;99609.50;;;9.92;100.00
64521;BME280;50896;46.714;17.322;2023-04-01T22:49:11;99608.66;;;9.92;100.00
64521;BME280;50896;46.714;17.322;2023-04-01T22:51:49;99609.84;;;9.89;100.00
64521;BME280;50896;46.714;17.322;2023-04-01T22:54:31;99605.16;;;9.91;100.00
64521;BME280;50896;46.714;17.322;2023-04-01T23:05:26;99603.06;;;9.87;100.00
64521;BME280;50896;46.714;17.322;2023-04-01T23:10:52;99626.16;;;9.78;100.00
64521;BME280;50896;46.714;17.322;2023-04-01T23:13:25;99620.75;;;9.71;100.00
64521;BME280;50896;46.714;17.322;2023-04-01T23:15:55;99631.47;;;9.78;100.00
64521;BME280;50896;46.714;17.322;2023-04-01T23:18:57;99640.09;;;9.80;100.00
64521;BME280;50896;46.714;17.322;2023-04-01T23:21:41;99634.78;;;9.80;100.00
64521;BME280;50896;46.714;17.322;2023-04-01T23:24:31;99626.28;;;9.85;100.00
64521;BME280;50896;46.714;17.322;2023-04-01T23:27:21;99633.94;;;9.88;100.00
64521;BME280;50896;46.714;17.322;2023-04-01T23:29:50;99632.09;;;9.88;100.00
64521;BME280;50896;46.714;17.322;2023-04-01T23:32:19;99607.44;;;9.80;100.00
64521;BME280;50896;46.714;17.322;2023-04-01T23:34:50;99623.47;;;9.86;100.00
64521;BME280;50896;46.714;17.322;2023-04-01T23:37:18;99611.53;;;9.82;100.00
64521;BME280;50896;46.714;17.322;2023-04-01T23:39:49;99611.09;;;9.79;100.00
64521;BME280;50896;46.714;17.322;2023-04-01T23:44:54;99612.84;;;9.86;100.00
64521;BME280;50896;46.714;17.322;2023-04-01T23:47:25;99604.59;;;9.81;100.00
64521;BME280;50896;46.714;17.322;2023-04-01T23:49:56;99610.38;;;9.85;100.00
64521;BME280;50896;46.714;17.322;2023-04-01T23:52:30;99603.56;;;9.82;100.00
64521;BME280;50896;46.714;17.322;2023-04-01T23:57:42;99598.69;;;9.71;100.00
